sensor_id;sensor_type;location;lat;lon;timestamp;temperature;humidity
61641;HTU21D;62201;49.966;8.342;2023-01-25T00:01:45;2.78;91.50
61641;HTU21D;62201;49.966;8.342;2023-01-25T00:04:11;2.75;91.72
61641;HTU21D;62201;49.966;8.342;2023-01-25T00:06:36;2.75;91.78
61641;HTU21D;62201;49.966;8.342;2023-01-25T00:09:02;2.73;91.56
61641;HTU21D;62201;49.966;8.342;2023-01-25T00:11:28;2.74;91.69
61641;HTU21D;62201;49.966;8.342;2023-01-25T00:13:54;2.74;91.68
61641;HTU21D;62201;49.966;8.342;2023-01-25T00:16:19;2.73;91.94
61641;HTU21D;62201;49.966;8.342;2023-01-25T00:18:45;2.75;92.00
61641;HTU21D;62201;49.966;8.342;2023-01-25T00:21:15;2.73;92.05
61641;HTU21D;62201;49.966;8.342;2023-01-25T00:23:41;2.72;92.19
61641;HTU21D;62201;49.966;8.342;2023-01-25T00:26:06;2.71;92.27
61641;HTU21D;62201;49.966;8.342;2023-01-25T00:28:31;2.71;92.18
61641;HTU21D;62201;49.966;8.342;2023-01-25T00:31:01;2.70;92.08
61641;HTU21D;62201;49.966;8.342;2023-01-25T00:36:38;2.69;92.08
61641;HTU21D;62201;49.966;8.342;2023-01-25T00:39:11;2.70;92.29
61641;HTU21D;62201;49.966;8.342;2023-01-25T00:41:36;2.69;92.39
61641;HTU21D;62201;49.966;8.342;2023-01-25T00:44:02;2.70;92.43
61641;HTU21D;62201;49.966;8.342;2023-01-25T00:46:27;2.70;92.37
61641;HTU21D;62201;49.966;8.342;2023-01-25T00:48:53;2.72;92.43
61641;HTU21D;62201;49.966;8.342;2023-01-25T00:51:19;2.71;92.56
61641;HTU21D;62201;49.966;8.342;2023-01-25T00:53:45;2.71;92.57
61641;HTU21D;62201;49.966;8.342;2023-01-25T00:56:10;2.70;92.66
61641;HTU21D;62201;49.966;8.342;2023-01-25T00:58:36;2.71;92.63
61641;HTU21D;62201;49.966;8.342;2023-01-25T01:01:01;2.71;92.79
61641;HTU21D;62201;49.966;8.342;2023-01-25T01:03:26;2.68;92.69
61641;HTU21D;62201;49.966;8.342;2023-01-25T01:06:06;2.68;92.57
61641;HTU21D;62201;49.966;8.342;2023-01-25T01:08:33;2.69;92.79
61641;HTU21D;62201;49.966;8.342;2023-01-25T01:11:04;2.69;92.76
61641;HTU21D;62201;49.966;8.342;2023-01-25T01:13:30;2.70;92.87
61641;HTU21D;62201;49.966;8.342;2023-01-25T01:15:56;2.66;92.68
61641;HTU21D;62201;49.966;8.342;2023-01-25T01:18:21;2.66;92.75
61641;HTU21D;62201;49.966;8.342;2023-01-25T01:20:48;2.68;92.75
61641;HTU21D;62201;49.966;8.342;2023-01-25T01:23:14;2.67;92.78
61641;HTU21D;62201;49.966;8.342;2023-01-25T01:25:39;2.68;92.85
61641;HTU21D;62201;49.966;8.342;2023-01-25T01:28:05;2.68;93.22
61641;HTU21D;62201;49.966;8.342;2023-01-25T01:30:30;2.67;93.11
61641;HTU21D;62201;49.966;8.342;2023-01-25T01:32:56;2.69;93.35
61641;HTU21D;62201;49.966;8.342;2023-01-25T01:35:21;2.67;93.33
61641;HTU21D;62201;49.966;8.342;2023-01-25T01:37:46;2.68;93.35
61641;HTU21D;62201;49.966;8.342;2023-01-25T01:40:15;2.66;93.33
61641;HTU21D;62201;49.966;8.342;2023-01-25T01:43:02;2.66;93.33
61641;HTU21D;62201;49.966;8.342;2023-01-25T01:48:54;2.65;93.62
61641;HTU21D;62201;49.966;8.342;2023-01-25T01:51:29;2.68;93.75
61641;HTU21D;62201;49.966;8.342;2023-01-25T01:56:34;2.67;93.68
61641;HTU21D;62201;49.966;8.342;2023-01-25T01:59:01;2.65;93.62
61641;HTU21D;62201;49.966;8.342;2023-01-25T02:01:27;2.66;93.64
61641;HTU21D;62201;49.966;8.342;2023-01-25T02:03:53;2.66;93.38
61641;HTU21D;62201;49.966;8.342;2023-01-25T02:06:59;2.66;93.11
61641;HTU21D;62201;49.966;8.342;2023-01-25T02:09:28;2.65;93.43
61641;HTU21D;62201;49.966;8.342;2023-01-25T02:11:55;2.65;93.36
61641;HTU21D;62201;49.966;8.342;2023-01-25T02:14:21;2.66;93.54
61641;HTU21D;62201;49.966;8.342;2023-01-25T02:16:47;2.65;93.68
61641;HTU21D;62201;49.966;8.342;2023-01-25T02:19:18;2.64;93.79
61641;HTU21D;62201;49.966;8.342;2023-01-25T02:21:47;2.65;93.78
61641;HTU21D;62201;49.966;8.342;2023-01-25T02:24:22;2.65;93.89
61641;HTU21D;62201;49.966;8.342;2023-01-25T02:26:48;2.62;93.71
61641;HTU21D;62201;49.966;8.342;2023-01-25T02:29:14;2.61;93.11
61641;HTU21D;62201;49.966;8.342;2023-01-25T02:31:43;2.64;93.24
61641;HTU21D;62201;49.966;8.342;2023-01-25T02:34:09;2.62;93.50
61641;HTU21D;62201;49.966;8.342;2023-01-25T02:36:34;2.64;93.37
61641;HTU21D;62201;49.966;8.342;2023-01-25T02:39:01;2.62;93.72
61641;HTU21D;62201;49.966;8.342;2023-01-25T02:41:38;2.62;93.78
61641;HTU21D;62201;49.966;8.342;2023-01-25T02:44:14;2.64;93.81
61641;HTU21D;62201;49.966;8.342;2023-01-25T02:46:47;2.65;93.99
61641;HTU21D;62201;49.966;8.342;2023-01-25T02:49:21;2.64;94.07
61641;HTU21D;62201;49.966;8.342;2023-01-25T02:51:49;2.65;93.88
61641;HTU21D;62201;49.966;8.342;2023-01-25T02:54:18;2.66;93.96
61641;HTU21D;62201;49.966;8.342;2023-01-25T02:56:45;2.66;93.92
61641;HTU21D;62201;49.966;8.342;2023-01-25T02:59:20;2.65;94.14
61641;HTU21D;62201;49.966;8.342;2023-01-25T03:01:46;2.66;93.90
61641;HTU21D;62201;49.966;8.342;2023-01-25T03:04:11;2.65;93.86
61641;HTU21D;62201;49.966;8.342;2023-01-25T03:06:38;2.66;94.20
61641;HTU21D;62201;49.966;8.342;2023-01-25T03:09:05;2.64;94.30
61641;HTU21D;62201;49.966;8.342;2023-01-25T03:11:31;2.61;94.20
61641;HTU21D;62201;49.966;8.342;2023-01-25T03:13:56;2.61;94.25
61641;HTU21D;62201;49.966;8.342;2023-01-25T03:16:22;2.61;94.02
61641;HTU21D;62201;49.966;8.342;2023-01-25T03:18:47;2.60;94.07
61641;HTU21D;62201;49.966;8.342;2023-01-25T03:21:17;2.60;94.03
61641;HTU21D;62201;49.966;8.342;2023-01-25T03:23:44;2.60;94.17
61641;HTU21D;62201;49.966;8.342;2023-01-25T03:26:17;2.59;94.26
61641;HTU21D;62201;49.966;8.342;2023-01-25T03:28:43;2.57;94.14
61641;HTU21D;62201;49.966;8.342;2023-01-25T03:31:12;2.58;94.23
61641;HTU21D;62201;49.966;8.342;2023-01-25T03:33:38;2.59;94.40
61641;HTU21D;62201;49.966;8.342;2023-01-25T03:36:04;2.60;94.56
61641;HTU21D;62201;49.966;8.342;2023-01-25T03:38:30;2.59;94.40
61641;HTU21D;62201;49.966;8.342;2023-01-25T03:40:56;2.58;94.49
61641;HTU21D;62201;49.966;8.342;2023-01-25T03:43:22;2.60;94.74
61641;HTU21D;62201;49.966;8.342;2023-01-25T03:45:51;2.62;94.91
61641;HTU21D;62201;49.966;8.342;2023-01-25T03:48:17;2.61;95.10
61641;HTU21D;62201;49.966;8.342;2023-01-25T03:50:48;2.62;95.20
61641;HTU21D;62201;49.966;8.342;2023-01-25T03:53:14;2.64;95.02
61641;HTU21D;62201;49.966;8.342;2023-01-25T03:55:52;2.65;95.00
61641;HTU21D;62201;49.966;8.342;2023-01-25T03:58:17;2.64;94.94
61641;HTU21D;62201;49.966;8.342;2023-01-25T04:00:42;2.62;94.58
61641;HTU21D;62201;49.966;8.342;2023-01-25T04:03:08;2.61;94.46
61641;HTU21D;62201;49.966;8.342;2023-01-25T04:05:33;2.60;94.77
61641;HTU21D;62201;49.966;8.342;2023-01-25T04:07:58;2.62;94.94
61641;HTU21D;62201;49.966;8.342;2023-01-25T04:10:24;2.60;95.10
61641;HTU21D;62201;49.966;8.342;2023-01-25T04:12:49;2.59;95.07
61641;HTU21D;62201;49.966;8.342;2023-01-25T04:15:15;2.57;95.28
61641;HTU21D;62201;49.966;8.342;2023-01-25T04:17:40;2.58;95.28
61641;HTU21D;62201;49.966;8.342;2023-01-25T04:20:06;2.59;95.43
61641;HTU21D;62201;49.966;8.342;2023-01-25T04:22:31;2.55;95.69
61641;HTU21D;62201;49.966;8.342;2023-01-25T04:24:56;2.56;95.75
61641;HTU21D;62201;49.966;8.342;2023-01-25T04:27:22;2.56;95.84
61641;HTU21D;62201;49.966;8.342;2023-01-25T04:29:47;2.57;95.70
61641;HTU21D;62201;49.966;8.342;2023-01-25T04:32:12;2.55;95.87
61641;HTU21D;62201;49.966;8.342;2023-01-25T04:34:38;2.54;95.66
61641;HTU21D;62201;49.966;8.342;2023-01-25T04:37:03;2.54;95.76
61641;HTU21D;62201;49.966;8.342;2023-01-25T04:39:29;2.54;95.74
61641;HTU21D;62201;49.966;8.342;2023-01-25T04:41:54;2.56;95.61
61641;HTU21D;62201;49.966;8.342;2023-01-25T04:44:19;2.54;95.83
61641;HTU21D;62201;49.966;8.342;2023-01-25T04:46:45;2.54;96.09
61641;HTU21D;62201;49.966;8.342;2023-01-25T04:49:10;2.57;96.21
61641;HTU21D;62201;49.966;8.342;2023-01-25T04:51:35;2.58;96.25
61641;HTU21D;62201;49.966;8.342;2023-01-25T04:54:01;2.58;96.16
61641;HTU21D;62201;49.966;8.342;2023-01-25T04:56:26;2.59;96.20
61641;HTU21D;62201;49.966;8.342;2023-01-25T04:58:52;2.56;96.05
61641;HTU21D;62201;49.966;8.342;2023-01-25T05:01:17;2.55;96.82
61641;HTU21D;62201;49.966;8.342;2023-01-25T05:03:42;2.54;96.43
61641;HTU21D;62201;49.966;8.342;2023-01-25T05:06:08;2.55;96.53
61641;HTU21D;62201;49.966;8.342;2023-01-25T05:08:33;2.55;96.49
61641;HTU21D;62201;49.966;8.342;2023-01-25T05:10:58;2.53;96.78
61641;HTU21D;62201;49.966;8.342;2023-01-25T05:13:24;2.52;96.70
61641;HTU21D;62201;49.966;8.342;2023-01-25T05:15:50;2.51;96.87
61641;HTU21D;62201;49.966;8.342;2023-01-25T05:18:15;2.55;96.95
61641;HTU21D;62201;49.966;8.342;2023-01-25T05:20:40;2.54;96.96
61641;HTU21D;62201;49.966;8.342;2023-01-25T05:23:06;2.52;97.13
61641;HTU21D;62201;49.966;8.342;2023-01-25T05:25:31;2.56;97.07
61641;HTU21D;62201;49.966;8.342;2023-01-25T05:28:15;2.54;97.09
61641;HTU21D;62201;49.966;8.342;2023-01-25T05:30:40;2.53;97.24
61641;HTU21D;62201;49.966;8.342;2023-01-25T05:33:06;2.52;97.43
61641;HTU21D;62201;49.966;8.342;2023-01-25T05:35:31;2.54;97.22
61641;HTU21D;62201;49.966;8.342;2023-01-25T05:37:57;2.53;97.23
61641;HTU21D;62201;49.966;8.342;2023-01-25T05:40:23;2.54;97.58
61641;HTU21D;62201;49.966;8.342;2023-01-25T05:42:55;2.50;97.57
61641;HTU21D;62201;49.966;8.342;2023-01-25T05:45:21;2.45;97.57
61641;HTU21D;62201;49.966;8.342;2023-01-25T05:47:51;2.43;97.47
61641;HTU21D;62201;49.966;8.342;2023-01-25T05:50:16;2.41;97.54
61641;HTU21D;62201;49.966;8.342;2023-01-25T05:52:44;2.41;97.58
61641;HTU21D;62201;49.966;8.342;2023-01-25T05:55:10;2.41;97.59
61641;HTU21D;62201;49.966;8.342;2023-01-25T05:57:35;2.35;97.52
61641;HTU21D;62201;49.966;8.342;2023-01-25T06:00:02;2.32;97.57
61641;HTU21D;62201;49.966;8.342;2023-01-25T06:02:27;2.31;97.60
61641;HTU21D;62201;49.966;8.342;2023-01-25T06:04:53;2.31;97.77
61641;HTU21D;62201;49.966;8.342;2023-01-25T06:07:18;2.29;97.58
61641;HTU21D;62201;49.966;8.342;2023-01-25T06:09:43;2.27;97.71
61641;HTU21D;62201;49.966;8.342;2023-01-25T06:12:09;2.27;97.76
61641;HTU21D;62201;49.966;8.342;2023-01-25T06:14:34;2.27;97.90
61641;HTU21D;62201;49.966;8.342;2023-01-25T06:17:00;2.28;97.88
61641;HTU21D;62201;49.966;8.342;2023-01-25T06:19:25;2.25;98.13
61641;HTU21D;62201;49.966;8.342;2023-01-25T06:21:51;2.24;98.03
61641;HTU21D;62201;49.966;8.342;2023-01-25T06:24:16;2.25;98.20
61641;HTU21D;62201;49.966;8.342;2023-01-25T06:26:41;2.26;98.31
61641;HTU21D;62201;49.966;8.342;2023-01-25T06:29:07;2.24;98.13
61641;HTU21D;62201;49.966;8.342;2023-01-25T06:31:32;2.25;98.42
61641;HTU21D;62201;49.966;8.342;2023-01-25T06:33:59;2.24;98.54
61641;HTU21D;62201;49.966;8.342;2023-01-25T06:36:29;2.21;98.59
61641;HTU21D;62201;49.966;8.342;2023-01-25T06:38:54;2.20;98.55
61641;HTU21D;62201;49.966;8.342;2023-01-25T06:41:20;2.17;98.62
61641;HTU21D;62201;49.966;8.342;2023-01-25T06:43:47;2.16;98.72
61641;HTU21D;62201;49.966;8.342;2023-01-25T06:46:13;2.17;98.43
61641;HTU21D;62201;49.966;8.342;2023-01-25T06:48:39;2.16;98.48
61641;HTU21D;62201;49.966;8.342;2023-01-25T06:51:08;2.15;98.74
61641;HTU21D;62201;49.966;8.342;2023-01-25T06:53:37;2.17;98.71
61641;HTU21D;62201;49.966;8.342;2023-01-25T06:56:15;2.16;98.88
61641;HTU21D;62201;49.966;8.342;2023-01-25T06:58:42;2.15;99.06
61641;HTU21D;62201;49.966;8.342;2023-01-25T07:01:21;2.13;98.78
61641;HTU21D;62201;49.966;8.342;2023-01-25T07:03:52;2.10;99.19
61641;HTU21D;62201;49.966;8.342;2023-01-25T07:06:18;2.10;99.39
61641;HTU21D;62201;49.966;8.342;2023-01-25T07:08:44;2.10;99.51
61641;HTU21D;62201;49.966;8.342;2023-01-25T07:11:10;2.11;99.58
61641;HTU21D;62201;49.966;8.342;2023-01-25T07:13:39;2.08;99.65
61641;HTU21D;62201;49.966;8.342;2023-01-25T07:16:06;2.09;99.63
61641;HTU21D;62201;49.966;8.342;2023-01-25T07:18:33;2.09;99.67
61641;HTU21D;62201;49.966;8.342;2023-01-25T07:21:15;2.10;99.78
61641;HTU21D;62201;49.966;8.342;2023-01-25T07:23:41;2.09;99.90
61641;HTU21D;62201;49.966;8.342;2023-01-25T07:26:15;2.09;100.10
61641;HTU21D;62201;49.966;8.342;2023-01-25T07:28:41;2.07;100.65
61641;HTU21D;62201;49.966;8.342;2023-01-25T07:31:06;2.07;100.76
61641;HTU21D;62201;49.966;8.342;2023-01-25T07:33:32;2.03;100.96
61641;HTU21D;62201;49.966;8.342;2023-01-25T07:36:02;1.99;100.83
61641;HTU21D;62201;49.966;8.342;2023-01-25T07:38:28;1.97;101.35
61641;HTU21D;62201;49.966;8.342;2023-01-25T07:40:53;1.98;101.38
61641;HTU21D;62201;49.966;8.342;2023-01-25T07:43:19;1.98;101.25
61641;HTU21D;62201;49.966;8.342;2023-01-25T07:45:45;1.96;101.32
61641;HTU21D;62201;49.966;8.342;2023-01-25T07:48:14;1.96;101.53
61641;HTU21D;62201;49.966;8.342;2023-01-25T07:50:39;1.97;101.70
61641;HTU21D;62201;49.966;8.342;2023-01-25T07:53:06;1.96;101.48
61641;HTU21D;62201;49.966;8.342;2023-01-25T07:55:32;1.99;101.89
61641;HTU21D;62201;49.966;8.342;2023-01-25T07:57:57;1.99;101.62
61641;HTU21D;62201;49.966;8.342;2023-01-25T08:00:23;2.01;101.35
61641;HTU21D;62201;49.966;8.342;2023-01-25T08:02:49;2.03;101.32
61641;HTU21D;62201;49.966;8.342;2023-01-25T08:05:15;2.02;101.51
61641;HTU21D;62201;49.966;8.342;2023-01-25T08:07:40;2.05;101.52
61641;HTU21D;62201;49.966;8.342;2023-01-25T08:10:06;2.07;101.74
61641;HTU21D;62201;49.966;8.342;2023-01-25T08:12:32;2.10;101.78
61641;HTU21D;62201;49.966;8.342;2023-01-25T08:14:58;2.10;101.80
61641;HTU21D;62201;49.966;8.342;2023-01-25T08:17:24;2.13;101.67
61641;HTU21D;62201;49.966;8.342;2023-01-25T08:19:58;2.12;101.79
61641;HTU21D;62201;49.966;8.342;2023-01-25T08:22:24;2.14;101.75
61641;HTU21D;62201;49.966;8.342;2023-01-25T08:24:50;2.16;101.69
61641;HTU21D;62201;49.966;8.342;2023-01-25T08:27:15;2.17;101.74
61641;HTU21D;62201;49.966;8.342;2023-01-25T08:29:41;2.16;101.70
61641;HTU21D;62201;49.966;8.342;2023-01-25T08:32:06;2.16;101.54
61641;HTU21D;62201;49.966;8.342;2023-01-25T08:34:32;2.21;101.83
61641;HTU21D;62201;49.966;8.342;2023-01-25T08:36:58;2.22;101.71
61641;HTU21D;62201;49.966;8.342;2023-01-25T08:39:24;2.21;101.62
61641;HTU21D;62201;49.966;8.342;2023-01-25T08:41:49;2.20;101.57
61641;HTU21D;62201;49.966;8.342;2023-01-25T08:44:14;2.21;101.60
61641;HTU21D;62201;49.966;8.342;2023-01-25T08:46:40;2.22;101.52
61641;HTU21D;62201;49.966;8.342;2023-01-25T08:49:05;2.15;101.16
61641;HTU21D;62201;49.966;8.342;2023-01-25T08:51:32;2.14;101.57
61641;HTU21D;62201;49.966;8.342;2023-01-25T08:54:02;2.14;101.67
61641;HTU21D;62201;49.966;8.342;2023-01-25T08:56:28;2.08;101.06
61641;HTU21D;62201;49.966;8.342;2023-01-25T08:58:53;2.09;101.43
61641;HTU21D;62201;49.966;8.342;2023-01-25T09:01:19;2.11;101.57
61641;HTU21D;62201;49.966;8.342;2023-01-25T09:03:47;2.13;101.69
61641;HTU21D;62201;49.966;8.342;2023-01-25T09:06:13;2.15;101.35
61641;HTU21D;62201;49.966;8.342;2023-01-25T09:08:38;2.10;101.66
61641;HTU21D;62201;49.966;8.342;2023-01-25T09:11:10;2.14;101.92
61641;HTU21D;62201;49.966;8.342;2023-01-25T09:13:36;2.17;101.66
61641;HTU21D;62201;49.966;8.342;2023-01-25T09:16:07;2.25;101.54
61641;HTU21D;62201;49.966;8.342;2023-01-25T09:18:35;2.13;100.91
61641;HTU21D;62201;49.966;8.342;2023-01-25T09:21:10;2.12;101.44
61641;HTU21D;62201;49.966;8.342;2023-01-25T09:23:36;2.14;101.60
61641;HTU21D;62201;49.966;8.342;2023-01-25T09:26:01;2.15;101.26
61641;HTU21D;62201;49.966;8.342;2023-01-25T09:28:28;2.17;101.80
61641;HTU21D;62201;49.966;8.342;2023-01-25T09:33:24;2.21;101.71
61641;HTU21D;62201;49.966;8.342;2023-01-25T09:35:49;2.19;101.91
61641;HTU21D;62201;49.966;8.342;2023-01-25T09:38:14;2.20;102.17
61641;HTU21D;62201;49.966;8.342;2023-01-25T09:40:47;2.24;102.24
61641;HTU21D;62201;49.966;8.342;2023-01-25T09:43:37;2.20;102.29
61641;HTU21D;62201;49.966;8.342;2023-01-25T09:46:24;2.16;102.64
61641;HTU21D;62201;49.966;8.342;2023-01-25T09:49:08;2.15;103.06
61641;HTU21D;62201;49.966;8.342;2023-01-25T09:54:27;2.15;102.96
61641;HTU21D;62201;49.966;8.342;2023-01-25T09:56:53;2.13;103.01
61641;HTU21D;62201;49.966;8.342;2023-01-25T09:59:22;2.12;103.24
61641;HTU21D;62201;49.966;8.342;2023-01-25T10:01:55;2.17;103.72
61641;HTU21D;62201;49.966;8.342;2023-01-25T10:04:24;2.21;103.90
61641;HTU21D;62201;49.966;8.342;2023-01-25T10:06:56;2.15;104.19
61641;HTU21D;62201;49.966;8.342;2023-01-25T10:09:49;2.19;104.31
61641;HTU21D;62201;49.966;8.342;2023-01-25T10:12:22;2.26;104.59
61641;HTU21D;62201;49.966;8.342;2023-01-25T10:14:49;2.29;104.14
61641;HTU21D;62201;49.966;8.342;2023-01-25T10:17:26;2.30;104.08
61641;HTU21D;62201;49.966;8.342;2023-01-25T10:20:17;2.29;103.63
61641;HTU21D;62201;49.966;8.342;2023-01-25T10:22:49;2.27;103.71
61641;HTU21D;62201;49.966;8.342;2023-01-25T10:33:19;2.34;103.94
61641;HTU21D;62201;49.966;8.342;2023-01-25T10:35:46;2.31;103.16
61641;HTU21D;62201;49.966;8.342;2023-01-25T10:38:39;2.32;103.11
61641;HTU21D;62201;49.966;8.342;2023-01-25T10:43:41;2.31;102.58
61641;HTU21D;62201;49.966;8.342;2023-01-25T10:46:19;2.27;102.79
61641;HTU21D;62201;49.966;8.342;2023-01-25T10:48:46;2.30;102.28
61641;HTU21D;62201;49.966;8.342;2023-01-25T10:51:28;2.25;101.83
61641;HTU21D;62201;49.966;8.342;2023-01-25T10:53:59;2.23;102.80
61641;HTU21D;62201;49.966;8.342;2023-01-25T10:56:26;2.27;103.86
61641;HTU21D;62201;49.966;8.342;2023-01-25T10:59:06;2.26;102.60
61641;HTU21D;62201;49.966;8.342;2023-01-25T11:01:33;2.22;102.70
61641;HTU21D;62201;49.966;8.342;2023-01-25T11:04:00;2.25;102.19
61641;HTU21D;62201;49.966;8.342;2023-01-25T11:06:32;2.24;102.86
61641;HTU21D;62201;49.966;8.342;2023-01-25T11:08:58;2.28;102.75
61641;HTU21D;62201;49.966;8.342;2023-01-25T11:11:30;2.31;102.79
61641;HTU21D;62201;49.966;8.342;2023-01-25T11:13:56;2.34;102.95
61641;HTU21D;62201;49.966;8.342;2023-01-25T11:16:34;2.31;101.94
61641;HTU21D;62201;49.966;8.342;2023-01-25T11:19:01;2.35;102.49
61641;HTU21D;62201;49.966;8.342;2023-01-25T11:21:32;2.34;101.99
61641;HTU21D;62201;49.966;8.342;2023-01-25T11:26:37;2.25;102.99
61641;HTU21D;62201;49.966;8.342;2023-01-25T11:29:06;2.22;103.54
61641;HTU21D;62201;49.966;8.342;2023-01-25T11:31:32;2.26;103.74
61641;HTU21D;62201;49.966;8.342;2023-01-25T11:33:57;2.28;103.42
61641;HTU21D;62201;49.966;8.342;2023-01-25T11:36:36;2.36;103.34
61641;HTU21D;62201;49.966;8.342;2023-01-25T11:39:15;2.36;102.70
61641;HTU21D;62201;49.966;8.342;2023-01-25T11:44:42;2.28;102.96
61641;HTU21D;62201;49.966;8.342;2023-01-25T11:47:39;2.24;102.66
61641;HTU21D;62201;49.966;8.342;2023-01-25T11:50:19;2.22;102.69
61641;HTU21D;62201;49.966;8.342;2023-01-25T11:55:35;2.25;103.43
61641;HTU21D;62201;49.966;8.342;2023-01-25T12:06:20;2.21;102.54
61641;HTU21D;62201;49.966;8.342;2023-01-25T12:14:04;2.30;102.95
61641;HTU21D;62201;49.966;8.342;2023-01-25T12:17:06;2.29;102.41
61641;HTU21D;62201;49.966;8.342;2023-01-25T12:19:53;2.24;102.54
61641;HTU21D;62201;49.966;8.342;2023-01-25T12:22:36;2.25;102.64
61641;HTU21D;62201;49.966;8.342;2023-01-25T12:31:06;2.23;102.08
61641;HTU21D;62201;49.966;8.342;2023-01-25T12:33:41;2.25;102.38
61641;HTU21D;62201;49.966;8.342;2023-01-25T12:36:14;2.32;102.68
61641;HTU21D;62201;49.966;8.342;2023-01-25T12:38:49;2.40;102.00
61641;HTU21D;62201;49.966;8.342;2023-01-25T12:44:24;2.27;102.03
61641;HTU21D;62201;49.966;8.342;2023-01-25T12:46:54;2.21;102.22
61641;HTU21D;62201;49.966;8.342;2023-01-25T12:49:27;2.23;103.00
61641;HTU21D;62201;49.966;8.342;2023-01-25T12:51:55;2.21;102.47
61641;HTU21D;62201;49.966;8.342;2023-01-25T12:54:33;2.21;102.53
61641;HTU21D;62201;49.966;8.342;2023-01-25T13:00:24;2.22;102.04
61641;HTU21D;62201;49.966;8.342;2023-01-25T13:06:00;2.26;101.90
61641;HTU21D;62201;49.966;8.342;2023-01-25T13:13:41;2.19;102.02
61641;HTU21D;62201;49.966;8.342;2023-01-25T13:18:53;2.13;101.99
61641;HTU21D;62201;49.966;8.342;2023-01-25T13:32:10;2.10;102.79
61641;HTU21D;62201;49.966;8.342;2023-01-25T13:43:00;2.08;102.31
61641;HTU21D;62201;49.966;8.342;2023-01-25T13:45:27;2.07;102.28
61641;HTU21D;62201;49.966;8.342;2023-01-25T13:50:35;2.08;102.86
61641;HTU21D;62201;49.966;8.342;2023-01-25T13:53:16;2.05;102.80
61641;HTU21D;62201;49.966;8.342;2023-01-25T13:55:48;2.05;102.81
61641;HTU21D;62201;49.966;8.342;2023-01-25T13:58:21;2.06;102.49
61641;HTU21D;62201;49.966;8.342;2023-01-25T14:00:57;2.08;102.54
61641;HTU21D;62201;49.966;8.342;2023-01-25T14:03:33;2.13;102.48
61641;HTU21D;62201;49.966;8.342;2023-01-25T14:06:00;2.14;102.46
61641;HTU21D;62201;49.966;8.342;2023-01-25T14:08:27;2.16;102.37
61641;HTU21D;62201;49.966;8.342;2023-01-25T14:10:53;2.16;102.28
61641;HTU21D;62201;49.966;8.342;2023-01-25T14:13:19;2.15;102.12
61641;HTU21D;62201;49.966;8.342;2023-01-25T14:15:59;2.16;102.53
61641;HTU21D;62201;49.966;8.342;2023-01-25T14:18:33;2.25;102.94
61641;HTU21D;62201;49.966;8.342;2023-01-25T14:21:28;2.26;102.31
61641;HTU21D;62201;49.966;8.342;2023-01-25T14:24:07;2.22;101.08
61641;HTU21D;62201;49.966;8.342;2023-01-25T14:26:34;2.23;101.50
61641;HTU21D;62201;49.966;8.342;2023-01-25T14:29:02;2.21;102.25
61641;HTU21D;62201;49.966;8.342;2023-01-25T14:31:32;2.16;102.05
61641;HTU21D;62201;49.966;8.342;2023-01-25T14:33:59;2.22;102.48
61641;HTU21D;62201;49.966;8.342;2023-01-25T14:36:32;2.22;102.54
61641;HTU21D;62201;49.966;8.342;2023-01-25T14:38:58;2.26;102.43
61641;HTU21D;62201;49.966;8.342;2023-01-25T14:41:36;2.27;102.41
61641;HTU21D;62201;49.966;8.342;2023-01-25T14:44:05;2.23;101.51
61641;HTU21D;62201;49.966;8.342;2023-01-25T14:46:36;2.19;101.43
61641;HTU21D;62201;49.966;8.342;2023-01-25T14:51:43;2.21;102.59
61641;HTU21D;62201;49.966;8.342;2023-01-25T14:54:21;2.24;102.41
61641;HTU21D;62201;49.966;8.342;2023-01-25T14:56:48;2.20;101.64
61641;HTU21D;62201;49.966;8.342;2023-01-25T14:59:27;2.15;102.16
61641;HTU21D;62201;49.966;8.342;2023-01-25T15:01:55;2.11;101.17
61641;HTU21D;62201;49.966;8.342;2023-01-25T15:04:21;2.11;102.25
61641;HTU21D;62201;49.966;8.342;2023-01-25T15:06:53;2.08;102.63
61641;HTU21D;62201;49.966;8.342;2023-01-25T15:09:38;2.05;102.85
61641;HTU21D;62201;49.966;8.342;2023-01-25T15:12:28;2.54;113.43
61641;HTU21D;62201;49.966;8.342;2023-01-25T15:14:55;2.53;106.76
61641;HTU21D;62201;49.966;8.342;2023-01-25T15:20:05;2.42;104.22
61641;HTU21D;62201;49.966;8.342;2023-01-25T15:22:30;2.35;100.11
61641;HTU21D;62201;49.966;8.342;2023-01-25T15:24:56;2.22;101.23
61641;HTU21D;62201;49.966;8.342;2023-01-25T15:27:22;2.10;101.43
61641;HTU21D;62201;49.966;8.342;2023-01-25T15:29:47;2.00;102.47
61641;HTU21D;62201;49.966;8.342;2023-01-25T15:32:20;1.98;103.68
61641;HTU21D;62201;49.966;8.342;2023-01-25T15:34:46;1.97;103.62
61641;HTU21D;62201;49.966;8.342;2023-01-25T15:37:12;1.93;102.73
61641;HTU21D;62201;49.966;8.342;2023-01-25T15:39:37;1.90;102.95
61641;HTU21D;62201;49.966;8.342;2023-01-25T15:42:04;1.85;102.40
61641;HTU21D;62201;49.966;8.342;2023-01-25T15:44:29;1.81;103.74
61641;HTU21D;62201;49.966;8.342;2023-01-25T15:46:55;1.82;104.05
61641;HTU21D;62201;49.966;8.342;2023-01-25T15:49:28;1.83;103.91
61641;HTU21D;62201;49.966;8.342;2023-01-25T15:51:55;1.84;103.81
61641;HTU21D;62201;49.966;8.342;2023-01-25T15:54:21;1.82;103.31
61641;HTU21D;62201;49.966;8.342;2023-01-25T15:56:53;1.80;102.88
61641;HTU21D;62201;49.966;8.342;2023-01-25T15:59:19;1.73;103.42
61641;HTU21D;62201;49.966;8.342;2023-01-25T16:01:45;1.72;103.56
61641;HTU21D;62201;49.966;8.342;2023-01-25T16:04:10;1.70;103.95
61641;HTU21D;62201;49.966;8.342;2023-01-25T16:06:44;1.70;104.15
61641;HTU21D;62201;49.966;8.342;2023-01-25T16:09:21;1.70;103.83
61641;HTU21D;62201;49.966;8.342;2023-01-25T16:11:50;1.63;103.68
61641;HTU21D;62201;49.966;8.342;2023-01-25T16:14:15;1.61;104.34
61641;HTU21D;62201;49.966;8.342;2023-01-25T16:16:46;1.61;104.40
61641;HTU21D;62201;49.966;8.342;2023-01-25T16:19:15;1.60;104.45
61641;HTU21D;62201;49.966;8.342;2023-01-25T16:21:41;1.62;104.44
61641;HTU21D;62201;49.966;8.342;2023-01-25T16:24:08;1.64;104.40
61641;HTU21D;62201;49.966;8.342;2023-01-25T16:26:36;1.64;104.32
61641;HTU21D;62201;49.966;8.342;2023-01-25T16:29:03;1.62;104.05
61641;HTU21D;62201;49.966;8.342;2023-01-25T16:31:28;1.64;104.26
61641;HTU21D;62201;49.966;8.342;2023-01-25T16:33:54;1.61;104.19
61641;HTU21D;62201;49.966;8.342;2023-01-25T16:36:20;1.60;104.28
61641;HTU21D;62201;49.966;8.342;2023-01-25T16:38:46;1.61;104.78
61641;HTU21D;62201;49.966;8.342;2023-01-25T16:41:12;1.61;104.68
61641;HTU21D;62201;49.966;8.342;2023-01-25T16:43:42;1.61;104.81
61641;HTU21D;62201;49.966;8.342;2023-01-25T16:46:28;1.64;104.45
61641;HTU21D;62201;49.966;8.342;2023-01-25T16:48:56;1.61;104.19
61641;HTU21D;62201;49.966;8.342;2023-01-25T16:51:23;1.55;104.12
61641;HTU21D;62201;49.966;8.342;2023-01-25T16:53:51;1.53;104.41
61641;HTU21D;62201;49.966;8.342;2023-01-25T16:56:21;1.51;104.41
61641;HTU21D;62201;49.966;8.342;2023-01-25T16:58:48;1.47;104.55
61641;HTU21D;62201;49.966;8.342;2023-01-25T17:01:16;1.43;104.44
61641;HTU21D;62201;49.966;8.342;2023-01-25T17:03:42;1.42;104.92
61641;HTU21D;62201;49.966;8.342;2023-01-25T17:06:18;1.41;105.16
61641;HTU21D;62201;49.966;8.342;2023-01-25T17:08:45;1.41;105.12
61641;HTU21D;62201;49.966;8.342;2023-01-25T17:11:10;1.40;105.38